Time;durP1;ratioP1;P1;durP2;ratioP2;P2;SDS_P1;SDS_P2;PMS_P1;PMS_P2;Temp;Humidity;BMP_temperature;BMP_pressure;BME280_temperature;BME280_humidity;BME280_pressure;Samples;Min_cycle;Max_cycle;Signal;HPM_P1;HPM_P2
2021/12/15 00:00:32;;;;;;;42.70;21.33;;;;;;;1.11;100.00;95352.06;5092013;28;20201;-81
2021/12/15 00:03:01;;;;;;;44.90;22.10;;;;;;;1.11;100.00;95360.53;5091574;28;20688;-77
2021/12/15 00:05:33;;;;;;;45.40;22.23;;;;;;;1.10;100.00;95360.66;5090920;28;20205;-77
2021/12/15 00:08:07;;;;;;;43.47;19.97;;;;;;;1.12;100.00;95356.25;5090452;28;20589;-78
2021/12/15 00:10:37;;;;;;;41.80;21.17;;;;;;;1.11;100.00;95362.28;5083888;28;20204;-77
2021/12/15 00:13:10;;;;;;;45.50;21.97;;;;;;;1.01;100.00;95356.44;5090492;28;20224;-78
2021/12/15 00:15:38;;;;;;;44.67;22.03;;;;;;;1.04;100.00;95363.78;5085259;28;20201;-78
2021/12/15 00:18:07;;;;;;;38.47;19.57;;;;;;;0.92;100.00;95363.22;5084046;28;20617;-78
2021/12/15 00:20:36;;;;;;;43.27;20.97;;;;;;;0.99;100.00;95365.97;5083485;28;20193;-78
2021/12/15 00:23:06;;;;;;;41.23;20.17;;;;;;;1.04;100.00;95368.91;5091323;28;20236;-79
2021/12/15 00:25:37;;;;;;;39.77;19.67;;;;;;;1.03;100.00;95373.25;5084481;28;20201;-81
2021/12/15 00:28:09;;;;;;;44.43;21.30;;;;;;;1.02;100.00;95379.31;5092546;28;20239;-81
2021/12/15 00:30:39;;;;;;;42.33;21.77;;;;;;;1.07;100.00;95374.56;5088821;28;20696;-80
2021/12/15 00:33:10;;;;;;;43.30;21.03;;;;;;;1.09;100.00;95384.66;5091879;28;20197;-81
2021/12/15 00:35:38;;;;;;;38.97;20.17;;;;;;;1.12;100.00;95381.84;5091847;28;20180;-80
2021/12/15 00:38:10;;;;;;;39.73;19.47;;;;;;;1.17;100.00;95382.19;5091804;28;20228;-80
2021/12/15 00:40:40;;;;;;;35.43;18.50;;;;;;;1.00;100.00;95362.50;5091588;28;20205;-80
2021/12/15 00:43:10;;;;;;;36.47;18.77;;;;;;;0.92;100.00;95376.00;5075027;28;20209;-81
2021/12/15 00:45:39;;;;;;;35.67;17.60;;;;;;;0.93;100.00;95364.00;5075327;28;20205;-76
2021/12/15 00:48:06;;;;;;;38.23;18.83;;;;;;;1.11;100.00;95375.91;5089570;28;20209;-75
2021/12/15 00:50:38;;;;;;;34.83;18.33;;;;;;;1.13;100.00;95368.88;5089742;28;20201;-79
2021/12/15 00:53:07;;;;;;;38.47;18.37;;;;;;;1.10;100.00;95371.72;5079673;28;20208;-80
2021/12/15 00:55:38;;;;;;;38.70;17.97;;;;;;;1.11;100.00;95364.84;5086878;28;20211;-79
2021/12/15 00:58:07;;;;;;;37.73;18.57;;;;;;;1.18;100.00;95368.47;5089272;28;20236;-79
2021/12/15 01:00:40;;;;;;;32.23;16.57;;;;;;;1.18;100.00;95377.91;5082833;28;20239;-79
2021/12/15 01:03:09;;;;;;;35.90;16.57;;;;;;;1.00;100.00;95350.50;5090400;28;20607;-78
2021/12/15 01:05:42;;;;;;;34.80;16.47;;;;;;;0.98;100.00;95360.06;5089346;28;20279;-78
2021/12/15 01:08:16;;;;;;;36.27;17.60;;;;;;;0.99;100.00;95364.25;5088241;28;20204;-78
2021/12/15 01:10:58;;;;;;;37.53;18.37;;;;;;;1.02;100.00;95353.72;5082320;28;20295;-79
2021/12/15 01:21:49;;;;;;;31.67;16.23;;;;;;;0.86;100.00;95357.84;5089304;28;20203;-78
2021/12/15 01:24:18;;;;;;;32.47;15.90;;;;;;;0.64;100.00;95347.94;5089210;28;20208;-79
2021/12/15 01:26:49;;;;;;;34.50;16.70;;;;;;;0.72;100.00;95359.13;5090065;28;20196;-79
2021/12/15 01:29:17;;;;;;;29.33;14.87;;;;;;;0.70;100.00;95352.50;5090029;28;20200;-79
2021/12/15 01:31:49;;;;;;;32.07;16.00;;;;;;;0.73;100.00;95365.00;5090128;28;20937;-80
2021/12/15 01:34:18;;;;;;;34.50;17.13;;;;;;;0.63;100.00;95359.16;5090260;28;20501;-80
2021/12/15 01:36:46;;;;;;;31.83;16.90;;;;;;;0.56;100.00;95357.16;5089266;28;20229;-79
2021/12/15 01:39:14;;;;;;;34.73;17.77;;;;;;;0.63;100.00;95356.59;5082452;28;20204;-79
2021/12/15 01:41:43;;;;;;;34.07;16.80;;;;;;;0.75;100.00;95358.03;5089628;28;20204;-80
2021/12/15 01:47:02;;;;;;;34.03;16.97;;;;;;;0.29;100.00;95300.84;5053042;28;20192;-84
2021/12/15 01:49:36;;;;;;;34.37;16.90;;;;;;;0.58;100.00;95351.88;5090645;28;20222;-82
2021/12/15 01:52:09;;;;;;;31.67;15.67;;;;;;;0.46;100.00;95338.47;5090716;28;20282;-82
2021/12/15 01:54:42;;;;;;;32.17;15.30;;;;;;;0.48;100.00;95346.00;5083784;28;20192;-82
2021/12/15 01:57:15;;;;;;;33.43;16.37;;;;;;;0.50;100.00;95354.34;5090434;28;20239;-81
2021/12/15 01:59:45;;;;;;;37.83;16.77;;;;;;;0.44;100.00;95342.91;5090519;28;20207;-81
2021/12/15 02:02:15;;;;;;;36.17;17.93;;;;;;;0.53;100.00;95359.97;5085715;28;20595;-81
2021/12/15 02:04:44;;;;;;;37.73;16.60;;;;;;;0.45;100.00;95343.72;5091213;28;20204;-80
2021/12/15 02:07:17;;;;;;;34.47;16.07;;;;;;;0.39;100.00;95351.94;5090034;28;20209;-81
2021/12/15 02:10:04;;;;;;;34.67;17.23;;;;;;;0.45;100.00;95348.84;5074215;28;20262;-80
2021/12/15 02:12:37;;;;;;;34.37;17.60;;;;;;;0.49;100.00;95358.63;5082651;28;20203;-81
2021/12/15 02:15:11;;;;;;;34.60;17.47;;;;;;;0.28;100.00;95340.16;5092279;28;20287;-80
2021/12/15 02:17:43;;;;;;;35.07;18.20;;;;;;;0.45;100.00;95357.31;5091025;28;20295;-83
2021/12/15 02:20:15;;;;;;;32.90;16.93;;;;;;;0.49;100.00;95345.84;5094210;28;20246;-82
2021/12/15 02:22:46;;;;;;;33.37;15.67;;;;;;;0.58;100.00;95355.25;5094593;28;20196;-81
2021/12/15 02:25:16;;;;;;;34.40;16.97;;;;;;;0.52;100.00;95350.69;5094674;28;20554;-81
2021/12/15 02:27:45;;;;;;;34.47;17.10;;;;;;;0.47;100.00;95340.06;5082930;28;20197;-80
2021/12/15 02:30:31;;;;;;;34.47;16.90;;;;;;;0.56;100.00;95356.34;5078494;28;20266;-77
2021/12/15 02:33:13;;;;;;;33.50;17.17;;;;;;;0.55;100.00;95352.97;5086333;28;20195;-76
2021/12/15 02:38:38;;;;;;;30.17;14.73;;;;;;;0.62;100.00;95355.78;5093301;28;20234;-77
2021/12/15 02:41:10;;;;;;;35.23;17.13;;;;;;;0.55;100.00;95365.75;5093894;28;20283;-77
2021/12/15 02:43:39;;;;;;;32.13;15.87;;;;;;;0.60;100.00;95365.34;5086966;28;20201;-77
2021/12/15 02:46:09;;;;;;;31.13;15.57;;;;;;;0.66;100.00;95358.88;5081168;28;20202;-77
2021/12/15 02:48:39;;;;;;;35.20;15.63;;;;;;;0.54;100.00;95359.03;5084743;28;20201;-77
2021/12/15 02:51:09;;;;;;;32.80;15.60;;;;;;;0.58;100.00;95359.53;5085540;28;20232;-78
2021/12/15 02:53:40;;;;;;;33.70;15.70;;;;;;;0.37;100.00;95356.41;5092804;28;20200;-79
2021/12/15 02:56:08;;;;;;;34.00;15.30;;;;;;;0.31;100.00;95362.06;5092303;28;20207;-77
2021/12/15 02:58:38;;;;;;;27.83;13.87;;;;;;;0.33;100.00;95355.06;5091965;28;20229;-78
2021/12/15 03:01:15;;;;;;;27.97;14.13;;;;;;;0.24;100.00;95355.88;5092520;28;20220;-78
2021/12/15 03:06:34;;;;;;;28.63;15.13;;;;;;;0.34;100.00;95360.03;5084564;28;20257;-78
2021/12/15 03:09:25;;;;;;;25.60;12.70;;;;;;;0.28;100.00;95362.34;5086190;28;20259;-77
2021/12/15 03:17:26;;;;;;;28.30;14.77;;;;;;;0.27;100.00;95376.84;5092121;28;20281;-77
2021/12/15 03:19:54;;;;;;;25.30;13.30;;;;;;;0.26;100.00;95379.56;5092738;28;20228;-78
2021/12/15 03:22:22;;;;;;;30.47;15.00;;;;;;;0.17;100.00;95365.84;5093200;28;20742;-78
2021/12/15 03:24:53;;;;;;;27.00;13.43;;;;;;;0.27;100.00;95381.16;5084896;28;20209;-78
2021/12/15 03:33:13;;;;;;;28.50;13.73;;;;;;;0.34;100.00;95379.69;5082906;28;20204;-78
2021/12/15 03:36:06;;;;;;;30.67;14.67;;;;;;;0.55;100.00;95385.38;5029494;28;20564;-79
2021/12/15 03:38:36;;;;;;;27.40;13.67;;;;;;;0.59;100.00;95384.19;5076759;28;20228;-78
2021/12/15 03:41:08;;;;;;;24.17;12.70;;;;;;;0.50;100.00;95388.38;5086004;28;20722;-78
2021/12/15 03:43:38;;;;;;;24.23;13.63;;;;;;;0.40;100.00;95384.25;5079300;28;20280;-77
2021/12/15 03:46:11;;;;;;;26.77;14.23;;;;;;;0.26;100.00;95374.44;5091846;28;20283;-78
2021/12/15 03:48:42;;;;;;;24.73;13.27;;;;;;;0.44;100.00;95394.03;5092366;28;20703;-78
2021/12/15 03:51:12;;;;;;;30.07;14.43;;;;;;;0.48;100.00;95390.28;5089916;28;20243;-78
2021/12/15 03:53:40;;;;;;;27.40;14.30;;;;;;;0.48;100.00;95394.56;5076585;28;20218;-79
2021/12/15 03:56:13;;;;;;;30.70;14.83;;;;;;;0.39;100.00;95387.72;5084917;28;20240;-78
2021/12/15 03:58:43;;;;;;;25.63;13.67;;;;;;;0.37;100.00;95385.31;5091392;28;20582;-78
2021/12/15 04:01:17;;;;;;;30.43;14.33;;;;;;;0.38;100.00;95386.91;5089110;28;20205;-77
2021/12/15 04:03:49;;;;;;;27.03;13.67;;;;;;;0.36;100.00;95388.00;5090909;28;20193;-76
2021/12/15 04:06:23;;;;;;;29.23;14.90;;;;;;;0.27;100.00;95387.06;5091205;28;20656;-78
2021/12/15 04:08:53;;;;;;;27.43;14.27;;;;;;;0.36;100.00;95403.34;5090383;28;20682;-70
2021/12/15 04:11:28;;;;;;;27.47;14.10;;;;;;;0.42;100.00;95397.69;5089146;28;20207;-72
2021/12/15 04:14:00;;;;;;;28.90;14.73;;;;;;;0.37;100.00;95404.97;5083087;28;20260;-71
2021/12/15 04:16:43;;;;;;;27.20;15.00;;;;;;;0.42;100.00;95405.34;5083869;28;20201;-71
2021/12/15 04:19:14;;;;;;;31.47;15.03;;;;;;;0.43;100.00;95412.09;5064242;28;20189;-71
2021/12/15 04:21:43;;;;;;;33.00;15.53;;;;;;;0.29;100.00;95397.19;5087748;28;20200;-70
2021/12/15 04:24:15;;;;;;;27.77;14.67;;;;;;;0.41;100.00;95409.66;5087980;28;20201;-70
2021/12/15 04:26:48;;;;;;;30.27;14.80;;;;;;;0.30;100.00;95393.66;5089137;28;20201;-70
2021/12/15 04:29:17;;;;;;;25.67;13.40;;;;;;;0.25;100.00;95413.72;5088986;28;20736;-71
2021/12/15 04:31:51;;;;;;;31.70;14.13;;;;;;;0.17;100.00;95416.97;5089219;28;20265;-71
2021/12/15 04:34:22;;;;;;;25.97;14.00;;;;;;;0.22;100.00;95419.91;5089085;28;20552;-70
2021/12/15 04:36:52;;;;;;;23.90;12.60;;;;;;;0.34;100.00;95420.56;5089286;28;20209;-72
2021/12/15 04:39:25;;;;;;;25.13;13.23;;;;;;;0.40;100.00;95423.41;5088843;28;20253;-71
2021/12/15 04:41:56;;;;;;;24.60;12.53;;;;;;;0.44;100.00;95419.59;5087293;28;20208;-71
2021/12/15 04:44:32;;;;;;;32.03;14.90;;;;;;;0.44;100.00;95423.91;5088979;28;20215;-71
2021/12/15 04:47:05;;;;;;;25.00;13.10;;;;;;;0.28;100.00;95416.81;5088400;28;20679;-71
2021/12/15 04:49:36;;;;;;;30.00;15.10;;;;;;;0.20;100.00;95426.91;5088706;28;20291;-71
2021/12/15 04:52:06;;;;;;;25.90;13.47;;;;;;;0.29;100.00;95431.19;5089314;28;20212;-71
2021/12/15 04:54:34;;;;;;;29.53;14.93;;;;;;;0.22;100.00;95432.69;5088819;28;20205;-71
2021/12/15 04:57:04;;;;;;;29.77;15.70;;;;;;;0.03;100.00;95414.00;5089101;28;20233;-71
2021/12/15 04:59:34;;;;;;;34.03;17.03;;;;;;;0.11;100.00;95425.16;5088806;28;20232;-71
2021/12/15 05:02:02;;;;;;;29.80;14.90;;;;;;;0.11;100.00;95437.94;5088312;28;20211;-71
2021/12/15 05:04:31;;;;;;;32.07;15.13;;;;;;;0.24;100.00;95429.97;5088390;28;20200;-71
2021/12/15 05:06:59;;;;;;;31.67;16.53;;;;;;;0.27;100.00;95427.16;5089190;28;20208;-71
2021/12/15 05:09:27;;;;;;;36.97;19.07;;;;;;;0.29;100.00;95430.41;5088216;28;20201;-71
2021/12/15 05:11:54;;;;;;;35.03;18.67;;;;;;;0.29;100.00;95422.72;5088194;28;20209;-71
2021/12/15 05:14:27;;;;;;;33.17;18.03;;;;;;;0.18;100.00;95428.78;5088368;28;20262;-71
2021/12/15 05:16:56;;;;;;;30.60;16.97;;;;;;;0.02;100.00;95405.53;5088082;28;20638;-71
2021/12/15 05:19:25;;;;;;;32.60;18.10;;;;;;;0.10;100.00;95428.66;5089342;28;20236;-71
2021/12/15 05:21:54;;;;;;;37.67;18.80;;;;;;;0.10;100.00;95430.41;5074054;28;20284;-71
2021/12/15 05:24:31;;;;;;;33.53;17.17;;;;;;;0.11;100.00;95432.03;5087743;28;20207;-72
2021/12/15 05:27:03;;;;;;;32.83;16.67;;;;;;;0.17;100.00;95439.97;5081657;28;20257;-71
2021/12/15 05:29:33;;;;;;;30.80;16.97;;;;;;;0.19;100.00;95439.81;5077627;28;20592;-71
2021/12/15 05:32:02;;;;;;;40.93;21.00;;;;;;;0.16;100.00;95438.34;5088605;28;20283;-71
2021/12/15 05:34:31;;;;;;;35.00;17.80;;;;;;;0.32;100.00;95443.69;5088202;28;20209;-71
2021/12/15 05:37:00;;;;;;;32.47;17.27;;;;;;;0.36;100.00;95446.78;5087546;28;20697;-71
2021/12/15 05:39:28;;;;;;;36.40;17.90;;;;;;;0.40;100.00;95445.59;5086556;28;20225;-70
2021/12/15 05:41:56;;;;;;;39.83;18.83;;;;;;;0.46;100.00;95448.38;5088309;28;20573;-71
2021/12/15 05:44:26;;;;;;;35.27;18.13;;;;;;;0.53;100.00;95446.91;5088059;28;20250;-70
2021/12/15 05:46:58;;;;;;;32.10;17.20;;;;;;;0.60;100.00;95457.41;5087832;28;20544;-71
2021/12/15 05:49:27;;;;;;;29.37;16.37;;;;;;;0.63;100.00;95459.69;5069925;28;20209;-72
2021/12/15 05:51:55;;;;;;;27.97;13.73;;;;;;;0.56;100.00;95456.03;5074848;28;20633;-72
2021/12/15 05:54:24;;;;;;;33.20;15.47;;;;;;;0.48;100.00;95448.25;5086461;28;20258;-72
2021/12/15 05:56:53;;;;;;;36.43;16.53;;;;;;;0.52;100.00;95441.91;5087212;28;20236;-72
2021/12/15 05:59:20;;;;;;;29.27;16.23;;;;;;;0.44;100.00;95437.50;5078369;28;20217;-72
2021/12/15 06:01:48;;;;;;;32.07;17.03;;;;;;;0.47;100.00;95434.66;5086379;28;20196;-72
2021/12/15 06:04:17;;;;;;;33.27;17.03;;;;;;;0.30;100.00;95429.44;5086276;28;20292;-72
2021/12/15 06:06:47;;;;;;;25.67;14.10;;;;;;;0.43;100.00;95447.88;5086978;28;20801;-72
2021/12/15 06:09:15;;;;;;;29.97;14.63;;;;;;;0.41;100.00;95436.94;5086654;28;20197;-72
2021/12/15 06:11:47;;;;;;;29.87;15.67;;;;;;;0.24;100.00;95441.00;5086843;28;20200;-72
2021/12/15 06:14:22;;;;;;;36.27;17.70;;;;;;;0.27;100.00;95453.53;5086254;28;20208;-72
2021/12/15 06:16:50;;;;;;;33.63;17.03;;;;;;;0.32;100.00;95456.47;5085775;28;20200;-71
2021/12/15 06:19:20;;;;;;;38.60;18.87;;;;;;;0.38;100.00;95462.78;5087150;28;20231;-70
2021/12/15 06:21:48;;;;;;;33.17;16.70;;;;;;;0.32;100.00;95459.03;5086217;28;20553;-72
2021/12/15 06:24:15;;;;;;;38.17;19.33;;;;;;;0.26;100.00;95449.34;5087338;28;20686;-70
2021/12/15 06:26:42;;;;;;;33.30;16.80;;;;;;;0.23;100.00;95454.72;5087834;28;20204;-71
2021/12/15 06:29:09;;;;;;;35.83;18.43;;;;;;;0.18;100.00;95445.84;5087269;28;20621;-72
2021/12/15 06:31:40;;;;;;;31.23;16.53;;;;;;;0.26;100.00;95451.13;5087314;28;20205;-70
2021/12/15 06:34:08;;;;;;;25.40;13.27;;;;;;;0.15;100.00;95458.91;5087354;28;20584;-71
2021/12/15 06:36:37;;;;;;;26.53;14.17;;;;;;;0.14;100.00;95459.84;5087294;28;20282;-71
2021/12/15 06:39:09;;;;;;;26.50;13.63;;;;;;;0.19;100.00;95463.63;5087158;28;20750;-71
2021/12/15 06:41:36;;;;;;;25.43;13.67;;;;;;;0.26;100.00;95453.69;5087643;28;20635;-71
2021/12/15 06:44:05;;;;;;;31.40;15.43;;;;;;;0.31;100.00;95460.00;5086241;28;20228;-73
2021/12/15 07:00:17;;;;;;;26.50;14.40;;;;;;;0.04;100.00;95457.28;5090299;28;20661;-70
2021/12/15 07:02:44;;;;;;;29.97;16.07;;;;;;;0.25;100.00;95477.59;5090502;28;20269;-70
2021/12/15 07:05:13;;;;;;;33.13;16.70;;;;;;;0.26;100.00;95476.69;5088272;28;20262;-70
2021/12/15 07:07:45;;;;;;;29.47;15.83;;;;;;;0.36;100.00;95482.56;5090425;28;20203;-70
2021/12/15 07:10:15;;;;;;;28.90;14.47;;;;;;;0.39;100.00;95472.91;5090914;28;20592;-70
2021/12/15 07:12:43;;;;;;;25.53;12.27;;;;;;;0.46;100.00;95476.50;5088771;28;20659;-71
2021/12/15 07:15:12;;;;;;;23.33;12.93;;;;;;;0.49;100.00;95480.56;5089790;28;20204;-70
2021/12/15 07:17:44;;;;;;;23.97;12.43;;;;;;;0.46;100.00;95496.16;5090251;28;20647;-70
2021/12/15 07:22:57;;;;;;;26.60;14.27;;;;;;;0.39;100.00;95495.91;5086576;28;20211;-70
2021/12/15 07:25:25;;;;;;;29.33;16.07;;;;;;;0.57;100.00;95490.91;5089724;28;20205;-71
2021/12/15 07:27:55;;;;;;;38.40;17.43;;;;;;;0.55;100.00;95485.09;5089940;28;20291;-70
2021/12/15 07:30:23;;;;;;;29.17;16.00;;;;;;;0.55;100.00;95497.88;5089028;28;20205;-72
2021/12/15 07:32:51;;;;;;;25.17;14.37;;;;;;;0.43;100.00;95484.44;5089633;28;20201;-70
2021/12/15 07:35:22;;;;;;;28.10;14.57;;;;;;;0.62;100.00;95496.41;5089701;28;20736;-71
2021/12/15 07:37:52;;;;;;;28.37;15.97;;;;;;;0.64;100.00;95502.19;5089487;28;20234;-70
2021/12/15 07:40:23;;;;;;;28.63;15.33;;;;;;;0.54;100.00;95503.97;5089547;28;20206;-71
2021/12/15 07:43:05;;;;;;;32.07;16.50;;;;;;;0.64;100.00;95499.63;5089579;28;20270;-71
2021/12/15 07:45:36;;;;;;;27.33;13.23;;;;;;;0.63;100.00;95500.59;5089263;28;20291;-71
2021/12/15 07:48:05;;;;;;;30.93;15.23;;;;;;;0.52;100.00;95498.16;5089102;28;20192;-70
2021/12/15 07:50:34;;;;;;;24.73;12.83;;;;;;;0.63;100.00;95513.38;5089243;28;20197;-72
2021/12/15 07:53:02;;;;;;;24.63;13.40;;;;;;;0.66;100.00;95515.66;5089045;28;20205;-69
2021/12/15 07:55:32;;;;;;;22.47;11.80;;;;;;;0.47;100.00;95513.91;5089193;28;20216;-70
2021/12/15 07:58:02;;;;;;;23.07;12.03;;;;;;;0.38;100.00;95524.94;5088988;28;20296;-74
2021/12/15 08:00:31;;;;;;;21.37;11.77;;;;;;;0.35;100.00;95524.41;5086810;28;20292;-77
2021/12/15 08:06:20;;;;;;;25.43;12.70;;;;;;;0.47;100.00;95525.88;5089016;28;20764;-75
2021/12/15 08:08:48;;;;;;;23.60;11.40;;;;;;;0.40;100.00;95535.88;5081369;28;20208;-76
2021/12/15 08:11:17;;;;;;;22.03;12.80;;;;;;;0.45;100.00;95525.22;5080538;28;20209;-79
2021/12/15 08:13:45;;;;;;;20.43;11.33;;;;;;;0.49;100.00;95529.91;5083962;28;20216;-79
2021/12/15 08:16:14;;;;;;;25.17;13.17;;;;;;;0.38;100.00;95535.16;5080127;28;20290;-75
2021/12/15 08:18:44;;;;;;;24.67;12.87;;;;;;;0.40;100.00;95538.41;5081974;28;20667;-75
2021/12/15 08:21:13;;;;;;;24.10;13.40;;;;;;;0.23;100.00;95531.38;5082911;28;20205;-76
2021/12/15 08:23:41;;;;;;;22.20;13.07;;;;;;;0.29;100.00;95545.41;5089689;28;20196;-75
2021/12/15 08:26:10;;;;;;;24.33;13.23;;;;;;;0.28;100.00;95539.50;5089468;28;20204;-75
2021/12/15 08:28:43;;;;;;;23.60;12.53;;;;;;;0.30;100.00;95540.16;5088412;28;20228;-76
2021/12/15 08:31:10;;;;;;;21.27;10.70;;;;;;;0.19;100.00;95542.84;5083885;28;20197;-75
2021/12/15 08:33:38;;;;;;;23.00;11.73;;;;;;;0.27;100.00;95537.03;5081016;28;20311;-76
2021/12/15 08:36:10;;;;;;;23.87;13.20;;;;;;;0.36;100.00;95554.13;5086444;28;20220;-78
2021/12/15 08:38:40;;;;;;;26.20;14.10;;;;;;;0.46;100.00;95553.19;5088412;28;20224;-76
2021/12/15 08:41:10;;;;;;;28.83;13.63;;;;;;;0.42;100.00;95556.16;5088424;28;20249;-75
2021/12/15 08:43:40;;;;;;;31.57;16.13;;;;;;;0.45;100.00;95555.91;5087664;28;20208;-75
2021/12/15 08:46:11;;;;;;;23.73;11.30;;;;;;;0.49;100.00;95554.72;5084230;28;20200;-76
2021/12/15 08:48:41;;;;;;;27.00;13.53;;;;;;;0.45;100.00;95561.81;5086010;28;20197;-74
2021/12/15 08:51:10;;;;;;;27.60;13.03;;;;;;;0.46;100.00;95557.53;5085001;28;20655;-75
2021/12/15 08:53:41;;;;;;;27.73;13.50;;;;;;;0.56;100.00;95561.69;5088028;28;20576;-76
2021/12/15 08:56:09;;;;;;;28.27;14.27;;;;;;;0.54;100.00;95558.47;5087730;28;20200;-75
2021/12/15 08:58:39;;;;;;;29.13;15.03;;;;;;;0.54;100.00;95561.03;5087086;28;20684;-76
2021/12/15 09:01:08;;;;;;;33.23;17.13;;;;;;;0.62;100.00;95568.00;5087805;28;20211;-76
2021/12/15 09:03:38;;;;;;;28.23;15.83;;;;;;;0.60;100.00;95563.97;5087882;28;20291;-81
2021/12/15 09:06:06;;;;;;;25.03;14.30;;;;;;;0.45;100.00;95566.94;5088713;28;20313;-89
2021/12/15 09:08:33;;;;;;;29.80;15.20;;;;;;;0.57;100.00;95567.63;5087797;28;20209;-76
2021/12/15 09:11:06;;;;;;;34.20;17.23;;;;;;;0.70;100.00;95573.25;5087626;28;20725;-75
2021/12/15 09:13:36;;;;;;;28.57;15.13;;;;;;;0.73;100.00;95569.63;5087773;28;20213;-75
2021/12/15 09:16:08;;;;;;;21.33;11.70;;;;;;;0.73;100.00;95574.72;5087117;28;20211;-75
2021/12/15 09:18:36;;;;;;;29.93;17.07;;;;;;;0.71;100.00;95574.06;5087333;28;20671;-76
2021/12/15 09:21:05;;;;;;;29.10;15.47;;;;;;;0.68;100.00;95575.16;5085532;28;20291;-75
2021/12/15 09:23:33;;;;;;;26.40;12.97;;;;;;;0.66;100.00;95566.00;5087207;28;20204;-75
2021/12/15 09:26:05;;;;;;;26.43;14.37;;;;;;;0.60;100.00;95571.66;5086565;28;20270;-74
2021/12/15 09:28:35;;;;;;;25.83;14.00;;;;;;;0.61;100.00;95560.50;5087198;28;20216;-74
2021/12/15 09:31:05;;;;;;;27.40;14.60;;;;;;;0.61;100.00;95566.38;5086655;28;20729;-75
2021/12/15 09:33:48;;;;;;;29.80;16.17;;;;;;;0.61;100.00;95558.72;5087080;28;20331;-75
2021/12/15 09:36:18;;;;;;;22.53;12.23;;;;;;;0.49;100.00;95563.16;5084428;28;20228;-75
2021/12/15 09:38:48;;;;;;;24.10;12.10;;;;;;;0.27;100.00;95563.41;5086678;28;20303;-73
2021/12/15 09:41:18;;;;;;;29.23;14.27;;;;;;;0.20;100.00;95564.09;5086170;28;20835;-72
2021/12/15 09:43:51;;;;;;;33.10;16.60;;;;;;;0.27;100.00;95554.94;5086887;28;20640;-75
2021/12/15 09:46:29;;;;;;;34.10;17.50;;;;;;;0.42;100.00;95556.16;5086688;28;20227;-73
2021/12/15 09:57:18;;;;;;;25.60;14.53;;;;;;;0.16;100.00;95560.16;5086802;28;20236;-75
2021/12/15 10:02:44;;;;;;;33.63;18.23;;;;;;;0.30;100.00;95558.03;5086772;28;20281;-74
2021/12/15 10:05:26;;;;;;;35.03;18.67;;;;;;;0.49;100.00;95558.03;5087077;28;20204;-73
2021/12/15 10:11:00;;;;;;;32.13;17.53;;;;;;;0.65;100.00;95560.06;5083847;28;20698;-75
2021/12/15 10:19:19;;;;;;;30.50;16.80;;;;;;;0.64;100.00;95540.56;5086567;28;20251;-73
2021/12/15 10:22:07;;;;;;;33.13;17.70;;;;;;;0.72;100.00;95555.22;5085419;28;20226;-74
2021/12/15 10:24:46;;;;;;;30.33;16.77;;;;;;;0.78;100.00;95541.91;5086085;28;20205;-75
2021/12/15 10:27:16;;;;;;;29.40;16.13;;;;;;;0.78;100.00;95540.13;5086945;28;20292;-74
2021/12/15 10:30:10;;;;;;;30.43;15.70;;;;;;;0.76;100.00;95533.53;5089869;28;20291;-74
2021/12/15 10:32:39;;;;;;;27.67;15.80;;;;;;;0.78;100.00;95535.00;5091195;28;20635;-74
2021/12/15 10:35:11;;;;;;;33.23;17.20;;;;;;;0.80;100.00;95532.34;5090818;28;20293;-74
2021/12/15 10:37:42;;;;;;;32.43;17.93;;;;;;;0.78;100.00;95526.56;5090909;28;20207;-74
2021/12/15 10:40:17;;;;;;;34.67;18.93;;;;;;;0.77;100.00;95522.38;5090810;28;20289;-74
2021/12/15 10:42:45;;;;;;;39.00;18.60;;;;;;;0.68;100.00;95524.00;5084844;28;20698;-74
2021/12/15 10:45:15;;;;;;;39.30;19.77;;;;;;;0.66;100.00;95520.78;5089968;28;20612;-74
2021/12/15 10:47:45;;;;;;;36.53;19.43;;;;;;;0.64;100.00;95516.72;5089175;28;20203;-74
2021/12/15 10:50:16;;;;;;;41.63;21.20;;;;;;;0.76;100.00;95516.44;5088642;28;20248;-74
2021/12/15 10:52:53;;;;;;;24.87;14.10;;;;;;;0.71;100.00;95522.91;5089521;28;20242;-75
2021/12/15 10:55:21;;;;;;;32.63;16.23;;;;;;;0.77;100.00;95517.25;5090780;28;20207;-74
2021/12/15 10:57:48;;;;;;;29.80;16.23;;;;;;;0.64;100.00;95509.06;5089667;28;20316;-76
2021/12/15 11:00:19;;;;;;;35.33;19.17;;;;;;;0.65;100.00;95510.69;5090005;28;20309;-74
2021/12/15 11:02:47;;;;;;;37.33;19.83;;;;;;;0.71;100.00;95513.50;5089938;28;20690;-74
2021/12/15 11:05:19;;;;;;;39.27;21.37;;;;;;;0.79;100.00;95515.38;5089368;28;20211;-74
2021/12/15 11:07:49;;;;;;;36.77;19.87;;;;;;;0.85;100.00;95515.63;5090078;28;20201;-73
2021/12/15 11:10:22;;;;;;;39.20;21.00;;;;;;;0.93;100.00;95513.19;5089809;28;20208;-73
2021/12/15 11:12:53;;;;;;;39.40;21.50;;;;;;;0.89;100.00;95508.50;5086999;28;20204;-74
2021/12/15 11:15:25;;;;;;;34.53;18.53;;;;;;;0.84;100.00;95520.88;5089079;28;20207;-74
2021/12/15 11:17:55;;;;;;;32.47;17.87;;;;;;;0.90;100.00;95517.75;5089729;28;20208;-74
2021/12/15 11:20:26;;;;;;;36.83;18.80;;;;;;;0.95;100.00;95511.28;5089670;28;20260;-74
2021/12/15 11:22:57;;;;;;;38.97;20.90;;;;;;;0.96;100.00;95505.25;5090019;28;20204;-74
2021/12/15 11:25:38;;;;;;;32.83;17.93;;;;;;;1.04;100.00;95509.66;5089612;28;20296;-74
2021/12/15 11:28:10;;;;;;;30.13;16.60;;;;;;;1.04;100.00;95510.47;5089590;28;20205;-74
2021/12/15 11:30:42;;;;;;;33.93;17.83;;;;;;;0.87;100.00;95506.06;5089702;28;20207;-73
2021/12/15 11:33:12;;;;;;;36.30;19.33;;;;;;;0.79;100.00;95500.84;5089495;28;20217;-74
2021/12/15 11:35:43;;;;;;;39.43;19.90;;;;;;;0.94;100.00;95509.69;5089770;28;20262;-74
2021/12/15 11:38:15;;;;;;;25.50;13.90;;;;;;;1.02;100.00;95503.88;5089764;28;20283;-74
2021/12/15 11:40:47;;;;;;;28.63;15.23;;;;;;;1.03;100.00;95506.31;5086402;28;20708;-74
2021/12/15 11:43:37;;;;;;;25.83;14.37;;;;;;;1.01;100.00;95499.72;5085921;28;20283;-74
2021/12/15 11:46:13;;;;;;;26.17;15.87;;;;;;;0.99;100.00;95494.72;5089801;28;20197;-74
2021/12/15 11:48:41;;;;;;;34.07;16.50;;;;;;;0.97;100.00;95498.38;5090361;28;20210;-74
2021/12/15 11:51:10;;;;;;;30.57;15.87;;;;;;;0.93;100.00;95495.28;5089572;28;20199;-74
2021/12/15 11:53:40;;;;;;;30.37;14.60;;;;;;;0.89;100.00;95496.53;5089201;28;20210;-74
2021/12/15 11:56:25;;;;;;;26.97;14.60;;;;;;;0.69;100.00;95496.69;5089138;28;20697;-74
2021/12/15 11:58:57;;;;;;;27.87;14.93;;;;;;;0.64;100.00;95493.72;5087366;28;20265;-75
2021/12/15 12:01:49;;;;;;;24.97;13.77;;;;;;;0.60;100.00;95500.88;5089358;28;20224;-75
2021/12/15 12:04:30;;;;;;;29.73;17.03;;;;;;;0.56;100.00;95482.44;5088839;28;20208;-74
2021/12/15 12:07:12;;;;;;;35.33;18.20;;;;;;;0.58;100.00;95480.53;5087852;28;20578;-74
2021/12/15 12:09:40;;;;;;;28.63;14.90;;;;;;;0.60;100.00;95488.09;5085158;28;20232;-75
2021/12/15 12:12:09;;;;;;;25.80;14.93;;;;;;;0.60;100.00;95492.38;5089083;28;20205;-74
2021/12/15 12:14:48;;;;;;;31.37;17.00;;;;;;;0.67;100.00;95490.88;5084849;28;20208;-74
2021/12/15 12:17:27;;;;;;;33.17;18.30;;;;;;;0.70;100.00;95485.50;5086084;28;20197;-74
2021/12/15 12:19:57;;;;;;;28.80;17.03;;;;;;;0.72;100.00;95488.75;5089065;28;20230;-76
2021/12/15 12:22:27;;;;;;;36.97;20.90;;;;;;;0.81;100.00;95487.91;5087999;28;20212;-75
2021/12/15 12:24:57;;;;;;;38.27;21.00;;;;;;;0.87;100.00;95498.38;5088651;28;20232;-73
2021/12/15 12:27:29;;;;;;;38.37;19.97;;;;;;;0.83;100.00;95484.28;5089302;28;20581;-72
2021/12/15 12:29:59;;;;;;;36.77;21.47;;;;;;;0.99;100.00;95493.91;5089025;28;20201;-74
2021/12/15 12:32:27;;;;;;;43.33;22.37;;;;;;;0.95;100.00;95485.69;5086678;28;20300;-73
2021/12/15 12:34:55;;;;;;;31.30;17.97;;;;;;;1.09;100.00;95492.97;5086364;28;20219;-75
2021/12/15 12:37:23;;;;;;;27.97;16.60;;;;;;;1.10;100.00;95491.19;5086005;28;20205;-73
2021/12/15 12:39:58;;;;;;;38.60;18.63;;;;;;;0.94;100.00;95488.41;5086519;28;20228;-74
2021/12/15 12:42:37;;;;;;;41.80;22.23;;;;;;;1.01;100.00;95492.03;5087193;28;20204;-74